createdAt,value
2017-09-02T00:01:43.288Z,3.70
2017-09-02T00:04:09.922Z,2.70
2017-09-02T00:06:36.597Z,3.00
2017-09-02T00:09:03.282Z,2.93
2017-09-02T00:11:29.944Z,2.60
2017-09-02T00:13:56.585Z,2.30
2017-09-02T00:16:23.256Z,3.33
2017-09-02T00:18:49.894Z,2.60
2017-09-02T00:21:16.564Z,5.87
2017-09-02T00:23:43.230Z,3.37
2017-09-02T00:26:09.887Z,3.43
2017-09-02T00:28:36.893Z,3.20
2017-09-02T00:31:03.532Z,3.40
2017-09-02T00:33:30.176Z,2.63
2017-09-02T00:35:56.835Z,4.27
2017-09-02T00:38:23.481Z,5.73
2017-09-02T00:40:50.146Z,4.70
2017-09-02T00:43:16.784Z,4.13
2017-09-02T00:49:12.790Z,4.27
2017-09-02T00:51:39.437Z,3.93
2017-09-02T00:54:06.105Z,3.63
2017-09-02T00:56:32.741Z,3.33
2017-09-02T00:58:59.591Z,4.60
2017-09-02T01:01:26.231Z,3.00
2017-09-02T01:03:52.881Z,4.20
2017-09-02T01:06:19.811Z,3.10
2017-09-02T01:08:46.455Z,4.10
2017-09-02T01:11:13.102Z,4.77
2017-09-02T01:13:39.764Z,4.20
2017-09-02T01:16:06.443Z,3.77
2017-09-02T01:18:33.091Z,4.47
2017-09-02T01:20:59.737Z,3.53
2017-09-02T01:23:26.408Z,3.47
2017-09-02T01:25:53.348Z,3.33
2017-09-02T01:28:19.988Z,5.63
2017-09-02T01:30:46.631Z,4.97
2017-09-02T01:33:13.313Z,3.60
2017-09-02T01:35:39.956Z,3.80
2017-09-02T01:38:06.647Z,4.10
2017-09-02T01:40:33.308Z,4.47
2017-09-02T01:42:59.949Z,4.33
2017-09-02T01:45:26.852Z,6.37
2017-09-02T01:47:53.936Z,3.70
2017-09-02T01:50:20.614Z,3.63
2017-09-02T01:52:47.939Z,4.50
2017-09-02T01:55:14.605Z,9.73
2017-09-02T01:57:41.244Z,4.10
2017-09-02T02:00:08.626Z,4.20
2017-09-02T02:02:35.505Z,4.17
2017-09-02T02:05:02.176Z,4.67
2017-09-02T02:07:28.820Z,4.10
2017-09-02T02:09:55.482Z,3.83
2017-09-02T02:12:22.120Z,5.27
2017-09-02T02:14:48.756Z,4.50
2017-09-02T02:17:15.556Z,4.37
2017-09-02T02:19:42.195Z,4.83
2017-09-02T02:22:08.832Z,4.50
2017-09-02T02:24:35.496Z,6.87
2017-09-02T02:27:02.164Z,5.23
2017-09-02T02:29:28.832Z,4.40
2017-09-02T02:31:55.477Z,4.57
2017-09-02T02:34:22.136Z,5.60
2017-09-02T02:36:48.800Z,5.70
2017-09-02T02:39:15.435Z,4.40
2017-09-02T02:41:42.100Z,5.17
2017-09-02T02:44:08.768Z,4.20
2017-09-02T02:46:35.432Z,5.20
2017-09-02T02:49:02.081Z,5.80
2017-09-02T02:51:28.742Z,4.50
2017-09-02T02:53:55.416Z,5.00
2017-09-02T02:56:22.060Z,5.07
2017-09-02T02:58:48.696Z,9.57
2017-09-02T03:01:15.357Z,5.23
2017-09-02T03:03:42.004Z,5.37
2017-09-02T03:06:08.660Z,4.53
2017-09-02T03:08:35.296Z,5.17
2017-09-02T03:11:01.967Z,4.33
2017-09-02T03:13:28.607Z,8.47
2017-09-02T03:15:55.259Z,4.10
2017-09-02T03:18:21.900Z,5.23
2017-09-02T03:20:48.541Z,17.00
2017-09-02T03:23:15.213Z,4.50
2017-09-02T03:25:41.850Z,4.47
2017-09-02T03:28:08.492Z,5.10
2017-09-02T03:30:35.154Z,5.07
2017-09-02T03:33:01.812Z,3.80
2017-09-02T03:35:28.489Z,4.37
2017-09-02T03:37:55.156Z,4.67
2017-09-02T03:40:21.795Z,5.40
2017-09-02T03:42:48.450Z,4.23
2017-09-02T03:45:15.116Z,4.37
2017-09-02T03:47:41.753Z,4.80
2017-09-02T03:50:08.388Z,4.73
2017-09-02T03:52:35.061Z,6.90
2017-09-02T03:55:01.712Z,6.70
2017-09-02T03:57:28.380Z,4.90
2017-09-02T03:59:55.025Z,4.00
2017-09-02T04:02:21.670Z,5.20
2017-09-02T04:04:48.333Z,6.20
2017-09-02T04:07:15.008Z,9.00
2017-09-02T04:09:41.643Z,4.83
2017-09-02T04:12:08.308Z,4.93
2017-09-02T04:14:34.952Z,4.80
2017-09-02T04:17:01.609Z,4.23
2017-09-02T04:19:28.313Z,5.17
2017-09-02T04:21:54.961Z,6.80
2017-09-02T04:24:21.640Z,4.47
2017-09-02T04:26:48.285Z,4.50
2017-09-02T04:29:14.948Z,4.20
2017-09-02T04:31:41.608Z,4.47
2017-09-02T04:34:08.247Z,4.13
2017-09-02T04:36:34.907Z,7.30
2017-09-02T04:39:01.581Z,4.77
2017-09-02T04:41:28.471Z,4.73
2017-09-02T04:43:55.107Z,5.70
2017-09-02T04:46:22.045Z,8.10
2017-09-02T04:48:48.692Z,5.23
2017-09-02T04:51:15.761Z,6.90
2017-09-02T04:53:42.406Z,5.60
2017-09-02T04:56:09.050Z,7.03
2017-09-02T04:58:36.010Z,7.03
2017-09-02T05:01:02.657Z,7.83
2017-09-02T05:03:29.310Z,9.30
2017-09-02T05:05:55.969Z,7.73
2017-09-02T05:08:22.616Z,7.93
2017-09-02T05:10:49.276Z,7.67
2017-09-02T05:13:15.923Z,7.80
2017-09-02T05:15:42.560Z,7.73
2017-09-02T05:18:09.261Z,7.87
2017-09-02T05:20:35.899Z,6.90
2017-09-02T05:23:02.552Z,7.40
2017-09-02T05:25:29.192Z,9.87
2017-09-02T05:27:55.873Z,7.03
2017-09-02T05:30:22.516Z,7.70
2017-09-02T05:32:49.176Z,7.80
2017-09-02T05:35:15.808Z,8.40
2017-09-02T05:37:42.465Z,7.03
2017-09-02T05:40:09.134Z,8.80
2017-09-02T05:42:35.772Z,9.60
2017-09-02T05:45:02.447Z,8.20
2017-09-02T05:47:29.097Z,10.53
2017-09-02T05:49:55.785Z,37.17
2017-09-02T05:52:22.441Z,12.63
2017-09-02T05:54:49.093Z,14.83
2017-09-02T05:57:15.775Z,34.80
2017-09-02T05:59:42.420Z,13.50
2017-09-02T06:02:09.092Z,12.37
2017-09-02T06:04:35.755Z,11.53
2017-09-02T06:07:02.424Z,10.33
2017-09-02T06:09:29.068Z,14.43
2017-09-02T06:11:55.712Z,14.60
2017-09-02T06:14:22.666Z,12.37
2017-09-02T06:16:49.311Z,12.00
2017-09-02T06:19:15.953Z,11.90
2017-09-02T06:21:42.646Z,11.70
2017-09-02T06:24:09.327Z,13.80
2017-09-02T06:26:35.980Z,20.93
2017-09-02T06:29:02.652Z,10.20
2017-09-02T06:31:29.301Z,11.33
2017-09-02T06:33:55.969Z,8.47
2017-09-02T06:36:22.616Z,10.37
2017-09-02T06:38:49.292Z,11.23
2017-09-02T06:41:15.946Z,13.07
2017-09-02T06:43:42.620Z,16.60
2017-09-02T06:46:09.264Z,13.47
2017-09-02T06:48:35.916Z,11.57
2017-09-02T06:51:02.581Z,11.33
2017-09-02T06:53:29.222Z,10.27
2017-09-02T06:55:55.885Z,6.17
2017-09-02T06:58:22.516Z,5.93
2017-09-02T07:00:49.157Z,5.23
2017-09-02T07:03:15.822Z,5.83
2017-09-02T07:05:42.472Z,6.03
2017-09-02T07:08:09.271Z,4.70
2017-09-02T07:10:35.903Z,4.27
2017-09-02T07:13:02.555Z,5.00
2017-09-02T07:15:29.512Z,6.10
2017-09-02T07:17:56.182Z,8.47
2017-09-02T07:20:22.815Z,11.20
2017-09-02T07:22:49.730Z,6.43
2017-09-02T07:25:16.372Z,5.80
2017-09-02T07:27:43.012Z,9.57
2017-09-02T07:30:09.672Z,5.43
2017-09-02T07:32:36.305Z,6.00
2017-09-02T07:35:02.963Z,6.17
2017-09-02T07:37:29.887Z,6.80
2017-09-02T07:39:56.536Z,7.43
2017-09-02T07:42:23.177Z,5.87
2017-09-02T07:44:49.885Z,7.37
2017-09-02T07:47:16.581Z,5.60
2017-09-02T07:49:43.268Z,5.30
2017-09-02T07:52:09.904Z,6.30
2017-09-02T07:54:36.551Z,6.70
2017-09-02T07:57:03.416Z,5.17
2017-09-02T07:59:30.061Z,5.73
2017-09-02T08:01:56.708Z,6.53
2017-09-02T08:04:23.377Z,5.23
2017-09-02T08:06:50.037Z,10.83
2017-09-02T08:09:16.709Z,5.73
2017-09-02T08:11:43.345Z,6.20
2017-09-02T08:14:10.020Z,10.10
2017-09-02T08:16:36.672Z,6.03
2017-09-02T08:19:03.325Z,5.60
2017-09-02T08:21:30.052Z,5.17
2017-09-02T08:23:56.693Z,6.37
2017-09-02T08:26:23.448Z,4.60
2017-09-02T08:28:50.113Z,4.40
2017-09-02T08:31:16.756Z,4.30
2017-09-02T08:33:43.421Z,4.40
2017-09-02T08:36:10.060Z,4.10
2017-09-02T08:38:36.735Z,4.67
2017-09-02T08:41:03.372Z,5.13
2017-09-02T08:43:30.009Z,5.03
2017-09-02T08:45:56.681Z,4.77
2017-09-02T08:48:23.340Z,4.87
2017-09-02T08:50:49.984Z,4.93
2017-09-02T08:53:16.645Z,4.63
2017-09-02T08:55:43.312Z,5.20
2017-09-02T08:58:10.012Z,4.87
2017-09-02T09:00:36.712Z,4.93
2017-09-02T09:03:03.364Z,4.30
2017-09-02T09:05:30.001Z,4.30
2017-09-02T09:07:56.673Z,3.60
2017-09-02T09:10:23.468Z,4.20
2017-09-02T09:12:50.242Z,4.53
2017-09-02T09:15:16.884Z,4.00
2017-09-02T09:17:43.534Z,4.47
2017-09-02T09:20:11.974Z,4.17
2017-09-02T09:22:38.688Z,4.20
2017-09-02T09:25:05.334Z,4.43
2017-09-02T09:27:31.992Z,4.43
2017-09-02T09:29:58.924Z,4.50
2017-09-02T09:32:25.565Z,3.50
2017-09-02T09:34:52.226Z,5.03
2017-09-02T09:37:18.889Z,5.83
2017-09-02T09:39:45.534Z,4.77
2017-09-02T09:42:12.492Z,4.50
2017-09-02T09:44:39.124Z,4.83
2017-09-02T09:47:05.763Z,5.53
2017-09-02T09:49:32.453Z,5.43
2017-09-02T09:51:59.092Z,4.73
2017-09-02T09:54:25.729Z,5.23
2017-09-02T09:56:52.398Z,6.17
2017-09-02T09:59:19.033Z,3.87
2017-09-02T10:01:45.876Z,4.83
2017-09-02T10:04:12.526Z,3.70
2017-09-02T10:06:39.165Z,4.00
2017-09-02T10:09:05.831Z,7.53
2017-09-02T10:11:32.476Z,4.30
2017-09-02T10:13:59.140Z,4.17
2017-09-02T10:16:25.780Z,3.80
2017-09-02T10:18:52.459Z,4.30
2017-09-02T10:21:19.102Z,4.07
2017-09-02T10:23:45.752Z,4.10
2017-09-02T10:26:12.744Z,4.07
2017-09-02T10:28:39.380Z,4.73
2017-09-02T10:31:06.021Z,7.73
2017-09-02T10:33:32.689Z,4.67
2017-09-02T10:35:59.333Z,11.90
2017-09-02T10:38:25.977Z,11.07
2017-09-02T10:40:52.641Z,8.93
2017-09-02T10:43:19.286Z,4.60
2017-09-02T10:45:45.928Z,5.20
2017-09-02T10:48:12.600Z,6.13
2017-09-02T10:50:40.205Z,4.77
2017-09-02T10:53:06.876Z,4.97
2017-09-02T10:55:33.517Z,3.60
2017-09-02T10:58:00.163Z,2.97
2017-09-02T11:00:26.829Z,3.30
2017-09-02T11:02:53.469Z,2.87
2017-09-02T11:05:20.134Z,4.10
2017-09-02T11:07:46.783Z,3.33
2017-09-02T11:10:13.420Z,5.03
2017-09-02T11:12:40.091Z,2.90
2017-09-02T11:15:06.732Z,2.40
2017-09-02T11:17:33.390Z,2.03
2017-09-02T11:20:00.074Z,3.30
2017-09-02T11:22:27.057Z,2.43
2017-09-02T11:24:53.700Z,2.67
2017-09-02T11:27:20.345Z,2.90
2017-09-02T11:29:47.020Z,2.80
2017-09-02T11:32:13.677Z,4.03
2017-09-02T11:34:40.322Z,6.80
2017-09-02T11:37:06.984Z,3.00
2017-09-02T11:39:33.633Z,2.30
2017-09-02T11:42:00.312Z,2.70
2017-09-02T11:44:26.983Z,2.40
2017-09-02T11:46:53.652Z,2.70
2017-09-02T11:49:20.289Z,2.60
2017-09-02T11:51:46.934Z,4.00
2017-09-02T11:54:13.613Z,2.47
2017-09-02T11:56:40.248Z,4.93
2017-09-02T11:59:06.913Z,2.60
2017-09-02T12:01:33.560Z,1.90
2017-09-02T12:04:00.201Z,2.03
2017-09-02T12:06:26.865Z,1.80
2017-09-02T12:08:53.521Z,1.70
2017-09-02T12:11:20.164Z,1.60
2017-09-02T12:13:46.824Z,1.97
2017-09-02T12:16:13.485Z,1.43
2017-09-02T12:18:40.125Z,2.07
2017-09-02T12:21:06.789Z,1.80
2017-09-02T12:23:33.452Z,4.73
2017-09-02T12:26:00.099Z,3.07
2017-09-02T12:28:26.772Z,1.87
2017-09-02T12:30:53.426Z,1.33
2017-09-02T12:33:20.098Z,2.40
2017-09-02T12:35:46.737Z,3.23
2017-09-02T12:38:13.376Z,2.43
2017-09-02T12:40:40.041Z,2.13
2017-09-02T12:43:06.699Z,2.30
2017-09-02T12:45:33.340Z,1.77
2017-09-02T12:48:00.015Z,2.80
2017-09-02T12:50:26.649Z,2.17
2017-09-02T12:52:53.321Z,2.20
2017-09-02T12:55:19.964Z,5.10
2017-09-02T12:57:46.604Z,1.97
2017-09-02T13:00:13.273Z,2.17
2017-09-02T13:02:39.937Z,2.67
2017-09-02T13:05:06.576Z,2.27
2017-09-02T13:07:33.213Z,2.00
2017-09-02T13:09:59.994Z,2.20
2017-09-02T13:12:26.631Z,2.13
2017-09-02T13:14:53.280Z,1.40
2017-09-02T13:17:19.973Z,1.70
2017-09-02T13:19:46.613Z,3.20
2017-09-02T13:22:13.277Z,3.90
2017-09-02T13:24:39.917Z,5.80
2017-09-02T13:27:06.587Z,4.20
2017-09-02T13:29:33.228Z,3.00
2017-09-02T13:31:59.895Z,5.00
2017-09-02T13:34:26.556Z,2.47
2017-09-02T13:36:53.191Z,2.53
2017-09-02T13:39:19.865Z,4.87
2017-09-02T13:41:46.533Z,2.90
2017-09-02T13:44:13.189Z,2.60
2017-09-02T13:46:39.860Z,3.87
2017-09-02T13:49:06.720Z,2.30
2017-09-02T13:51:33.355Z,2.70
2017-09-02T13:53:59.999Z,1.80
2017-09-02T13:56:26.656Z,9.43
2017-09-02T13:58:53.325Z,2.87
2017-09-02T14:01:19.976Z,3.07
2017-09-02T14:03:46.644Z,3.97
2017-09-02T14:06:13.296Z,4.17
2017-09-02T14:08:39.948Z,4.60
2017-09-02T14:11:06.627Z,4.10
2017-09-02T14:13:33.268Z,4.67
2017-09-02T14:15:59.912Z,4.03
2017-09-02T14:18:26.573Z,4.23
2017-09-02T14:20:53.214Z,6.07
2017-09-02T14:23:19.861Z,5.00
2017-09-02T14:25:46.639Z,5.10
2017-09-02T14:28:13.276Z,5.90
2017-09-02T14:30:39.916Z,6.73
2017-09-02T14:33:06.576Z,5.37
2017-09-02T14:35:33.235Z,7.03
2017-09-02T14:37:59.899Z,5.90
2017-09-02T14:40:26.536Z,5.80
2017-09-02T14:42:53.221Z,6.90
2017-09-02T14:45:19.860Z,7.67
2017-09-02T14:47:46.505Z,7.30
2017-09-02T14:50:13.363Z,8.73
2017-09-02T14:52:40.005Z,7.97
2017-09-02T14:55:06.653Z,10.60
2017-09-02T14:57:33.328Z,11.93
2017-09-02T14:59:59.996Z,9.70
2017-09-02T15:02:26.670Z,11.17
2017-09-02T15:09:26.997Z,11.57
2017-09-02T15:11:53.669Z,14.63
2017-09-02T15:14:20.352Z,11.70
2017-09-02T15:16:47.023Z,10.03
2017-09-02T15:19:13.693Z,51.83
2017-09-02T15:21:40.345Z,14.07
2017-09-02T15:24:07.021Z,9.93
2017-09-02T15:26:33.824Z,46.43
2017-09-02T15:29:00.493Z,29.57
2017-09-02T15:31:27.150Z,18.87
2017-09-02T15:33:53.821Z,28.93
2017-09-02T15:36:20.472Z,15.03
2017-09-02T15:38:47.107Z,7.80
2017-09-02T15:41:13.782Z,14.50
2017-09-02T15:43:40.426Z,8.53
2017-09-02T15:46:07.072Z,28.57
2017-09-02T15:48:33.740Z,10.80
2017-09-02T15:51:00.389Z,12.37
2017-09-02T15:53:27.061Z,16.33
2017-09-02T15:55:53.728Z,7.27
2017-09-02T15:58:20.409Z,8.63
2017-09-02T16:00:47.057Z,10.60
2017-09-02T16:03:13.693Z,7.23
2017-09-02T16:05:40.367Z,12.73
2017-09-02T16:08:07.026Z,28.23
2017-09-02T16:10:33.676Z,15.20
2017-09-02T16:13:00.354Z,11.23
2017-09-02T16:15:26.998Z,6.57
2017-09-02T16:17:53.791Z,6.27
2017-09-02T16:20:20.463Z,11.10
2017-09-02T16:22:47.112Z,11.53
2017-09-02T16:25:13.799Z,6.27
2017-09-02T16:27:40.445Z,6.97
2017-09-02T16:30:07.091Z,6.40
2017-09-02T16:32:33.767Z,7.13
2017-09-02T16:35:00.408Z,7.07
2017-09-02T16:37:27.423Z,6.20
2017-09-02T16:39:54.057Z,7.40
2017-09-02T16:42:20.740Z,9.83
2017-09-02T16:44:47.409Z,7.07
2017-09-02T16:47:14.059Z,12.00
2017-09-02T16:49:40.734Z,10.63
2017-09-02T16:52:07.394Z,9.17
2017-09-02T16:54:34.048Z,15.67
2017-09-02T16:57:00.722Z,12.07
2017-09-02T16:59:27.389Z,10.50
2017-09-02T17:01:54.040Z,9.00
2017-09-02T17:04:20.705Z,8.20
2017-09-02T17:06:47.345Z,6.53
2017-09-02T17:09:14.011Z,7.90
2017-09-02T17:11:40.653Z,9.37
2017-09-02T17:14:07.301Z,9.83
2017-09-02T17:16:34.090Z,10.47
2017-09-02T17:19:00.745Z,12.53
2017-09-02T17:21:27.414Z,13.50
2017-09-02T17:23:54.064Z,19.67
2017-09-02T17:26:20.856Z,12.13
2017-09-02T17:28:47.520Z,11.03
2017-09-02T17:31:14.174Z,14.90
2017-09-02T17:33:40.839Z,9.63
2017-09-02T17:36:07.492Z,11.13
2017-09-02T17:38:34.158Z,10.53
2017-09-02T17:41:00.817Z,8.43
2017-09-02T17:43:27.485Z,5.47
2017-09-02T17:45:54.132Z,6.63
2017-09-02T17:48:20.767Z,6.53
2017-09-02T17:50:47.440Z,5.50
2017-09-02T17:53:14.080Z,11.43
2017-09-02T17:55:40.717Z,9.73
2017-09-02T17:58:07.694Z,14.47
2017-09-02T18:00:34.344Z,6.33
2017-09-02T18:03:00.990Z,5.50
2017-09-02T18:05:27.649Z,5.53
2017-09-02T18:07:54.302Z,5.87
2017-09-02T18:10:20.984Z,6.80
2017-09-02T18:12:47.620Z,9.83
2017-09-02T18:15:14.265Z,6.17
2017-09-02T18:17:41.323Z,7.50
2017-09-02T18:20:07.971Z,7.83
2017-09-02T18:22:34.617Z,6.73
2017-09-02T18:25:01.279Z,9.10
2017-09-02T18:27:27.955Z,23.77
2017-09-02T18:29:54.616Z,15.97
2017-09-02T18:32:21.285Z,23.57
2017-09-02T18:34:47.936Z,10.13
2017-09-02T18:37:14.620Z,18.13
2017-09-02T18:39:41.269Z,12.87
2017-09-02T18:42:07.919Z,7.60
2017-09-02T18:44:34.589Z,11.50
2017-09-02T18:47:01.244Z,7.40
2017-09-02T18:49:27.899Z,10.13
2017-09-02T18:51:54.573Z,12.67
2017-09-02T18:54:21.229Z,17.63
2017-09-02T18:56:47.917Z,7.77
2017-09-02T18:59:14.563Z,11.13
2017-09-02T19:01:41.208Z,9.70
2017-09-02T19:04:07.877Z,11.60
2017-09-02T19:06:34.548Z,19.17
2017-09-02T19:09:01.220Z,19.73
2017-09-02T19:11:27.875Z,15.10
2017-09-02T19:13:54.551Z,19.93
2017-09-02T19:16:21.200Z,14.33
2017-09-02T19:18:47.861Z,21.53
2017-09-02T19:21:14.525Z,10.37
2017-09-02T19:23:41.189Z,9.90
2017-09-02T19:26:07.832Z,10.77
2017-09-02T19:28:34.479Z,15.63
2017-09-02T19:31:01.248Z,11.73
2017-09-02T19:33:27.892Z,10.43
2017-09-02T19:35:54.535Z,14.00
2017-09-02T19:38:21.205Z,14.23
2017-09-02T19:40:47.876Z,37.97
2017-09-02T19:43:14.527Z,16.30
2017-09-02T19:45:41.192Z,13.30
2017-09-02T19:48:08.064Z,11.70
2017-09-02T19:50:34.709Z,12.00
2017-09-02T19:53:01.396Z,14.80
2017-09-02T19:55:28.040Z,10.90
2017-09-02T19:57:54.688Z,12.27
2017-09-02T20:00:21.378Z,14.03
2017-09-02T20:02:48.024Z,13.93
2017-09-02T20:05:14.697Z,12.67
2017-09-02T20:07:41.355Z,16.20
2017-09-02T20:10:08.034Z,33.63
2017-09-02T20:12:34.681Z,16.17
2017-09-02T20:15:01.340Z,13.90
2017-09-02T20:17:28.009Z,18.87
2017-09-02T20:19:54.648Z,16.77
2017-09-02T20:22:21.537Z,26.10
2017-09-02T20:24:48.180Z,16.47
2017-09-02T20:27:14.832Z,34.73
2017-09-02T20:29:41.505Z,18.87
2017-09-02T20:32:08.210Z,18.50
2017-09-02T20:34:34.889Z,11.03
2017-09-02T20:37:01.545Z,11.60
2017-09-02T20:39:28.213Z,11.60
2017-09-02T20:41:54.852Z,9.93
2017-09-02T20:44:21.488Z,8.50
2017-09-02T20:46:48.156Z,10.20
2017-09-02T20:49:14.808Z,9.03
2017-09-02T20:51:41.449Z,8.93
2017-09-02T20:54:08.367Z,13.50
2017-09-02T20:56:35.023Z,11.07
2017-09-02T20:59:01.698Z,10.30
2017-09-02T21:01:28.340Z,9.50
2017-09-02T21:03:55.008Z,11.60
2017-09-02T21:06:21.667Z,33.97
2017-09-02T21:08:48.347Z,13.50
2017-09-02T21:11:14.991Z,9.97
2017-09-02T21:13:41.666Z,12.97
2017-09-02T21:16:08.339Z,16.13
2017-09-02T21:18:34.985Z,12.77
2017-09-02T21:21:01.812Z,14.63
2017-09-02T21:23:28.464Z,11.93
2017-09-02T21:25:55.102Z,10.60
2017-09-02T21:28:21.767Z,11.17
2017-09-02T21:30:48.408Z,10.60
2017-09-02T21:33:15.316Z,12.63
2017-09-02T21:35:41.965Z,10.83
2017-09-02T21:38:08.608Z,10.60
2017-09-02T21:40:35.680Z,12.67
2017-09-02T21:43:02.324Z,12.10
2017-09-02T21:45:28.963Z,10.43
2017-09-02T21:47:55.656Z,13.20
2017-09-02T21:50:22.306Z,10.37
2017-09-02T21:52:49.298Z,11.60
2017-09-02T21:55:15.945Z,10.80
2017-09-02T21:57:42.583Z,9.83
2017-09-02T22:00:09.255Z,11.23
2017-09-02T22:02:35.909Z,18.40
2017-09-02T22:05:02.553Z,12.43
2017-09-02T22:07:29.233Z,9.07
2017-09-02T22:09:55.886Z,11.07
2017-09-02T22:12:22.539Z,11.17
2017-09-02T22:14:49.220Z,11.20
2017-09-02T22:17:15.892Z,17.30
2017-09-02T22:19:42.593Z,13.23
2017-09-02T22:22:09.274Z,13.43
2017-09-02T22:24:35.941Z,13.00
2017-09-02T22:27:02.599Z,15.37
2017-09-02T22:29:29.250Z,12.93
2017-09-02T22:31:55.921Z,12.80
2017-09-02T22:34:22.572Z,14.07
2017-09-02T22:36:49.218Z,20.60
2017-09-02T22:39:15.885Z,14.60
2017-09-02T22:41:42.533Z,13.13
2017-09-02T22:44:09.190Z,11.67
2017-09-02T22:46:35.868Z,14.00
2017-09-02T22:49:02.515Z,15.37
2017-09-02T22:51:29.186Z,14.53
2017-09-02T22:53:55.828Z,14.33
2017-09-02T22:56:22.493Z,12.47
2017-09-02T22:58:49.154Z,15.10
2017-09-02T23:01:15.821Z,11.60
2017-09-02T23:03:42.488Z,18.90
2017-09-02T23:06:09.136Z,17.60
2017-09-02T23:08:35.811Z,11.13
2017-09-02T23:11:02.464Z,10.33
2017-09-02T23:13:29.132Z,9.97
2017-09-02T23:15:55.777Z,10.30
2017-09-02T23:18:22.440Z,9.63
2017-09-02T23:20:49.109Z,10.53
2017-09-02T23:23:15.759Z,9.80
2017-09-02T23:25:42.405Z,12.97
2017-09-02T23:28:09.080Z,11.73
2017-09-02T23:30:35.729Z,19.50
2017-09-02T23:33:02.417Z,11.47
2017-09-02T23:35:29.058Z,10.60
2017-09-02T23:37:55.748Z,17.93
2017-09-02T23:40:22.392Z,13.03
2017-09-02T23:42:49.040Z,14.73
2017-09-02T23:45:15.711Z,12.13
2017-09-02T23:47:42.353Z,14.63
2017-09-02T23:50:09.026Z,11.37
2017-09-02T23:52:35.673Z,9.97
2017-09-02T23:55:02.315Z,12.57
2017-09-02T23:57:28.981Z,11.63
2017-09-02T23:59:55.641Z,12.70
